createdAt,value
2017-04-28T00:00:03.132Z,1014.69
2017-04-28T00:05:02.808Z,1014.62
2017-04-28T00:10:03.697Z,1014.62
2017-04-28T00:15:03.442Z,1014.59
2017-04-28T00:20:03.216Z,1014.57
2017-04-28T00:25:02.953Z,1014.47
2017-04-28T00:30:03.662Z,1014.42
2017-04-28T00:35:03.274Z,1014.44
2017-04-28T00:40:02.982Z,1014.47
2017-04-28T00:45:33.740Z,1014.44
2017-04-28T00:50:03.373Z,1014.37
2017-04-28T00:55:02.989Z,1014.38
2017-04-28T01:00:03.616Z,1014.34
2017-04-28T01:05:03.381Z,1014.32
2017-04-28T01:10:03.001Z,1014.27
2017-04-28T01:15:02.771Z,1014.19
2017-04-28T01:20:03.604Z,1014.24
2017-04-28T01:25:03.335Z,1014.24
2017-04-28T01:30:03.085Z,1014.15
2017-04-28T01:35:03.892Z,1014.18
2017-04-28T01:40:02.667Z,1014.1
2017-04-28T01:45:03.402Z,1014.04
2017-04-28T01:50:03.082Z,1014
2017-04-28T01:55:02.801Z,1014.03
2017-04-28T02:00:03.397Z,1014
2017-04-28T02:05:03.080Z,1013.9
2017-04-28T02:10:02.870Z,1013.96
2017-04-28T02:15:03.488Z,1013.9
2017-04-28T02:20:03.328Z,1013.83
2017-04-28T02:25:02.970Z,1013.76
2017-04-28T02:30:03.591Z,1013.68
2017-04-28T02:35:03.420Z,1013.62
2017-04-28T02:40:03.086Z,1013.66
2017-04-28T02:45:02.854Z,1013.59
2017-04-28T02:50:03.626Z,1013.53
2017-04-28T02:55:03.284Z,1013.54
2017-04-28T03:00:03.125Z,1013.47
2017-04-28T03:05:02.940Z,1013.47
2017-04-28T03:10:02.673Z,1013.53
2017-04-28T03:15:03.466Z,1013.49
2017-04-28T03:20:03.120Z,1013.47
2017-04-28T03:25:02.920Z,1013.42
2017-04-28T03:30:03.645Z,1013.44
2017-04-28T03:35:03.264Z,1013.33
2017-04-28T03:40:03.144Z,1013.28
2017-04-28T03:45:02.758Z,1013.27
2017-04-28T03:50:03.376Z,1013.23
2017-04-28T03:55:03.117Z,1013.27
2017-04-28T04:00:02.930Z,1013.2
2017-04-28T04:05:02.762Z,1013.33
2017-04-28T04:10:03.599Z,1013.25
2017-04-28T04:15:03.331Z,1013.2
2017-04-28T04:20:02.945Z,1013.23
2017-04-28T04:25:02.732Z,1013.14
2017-04-28T04:30:03.465Z,1013.23
2017-04-28T04:35:03.145Z,1013.17
2017-04-28T04:40:02.754Z,1013.13
2017-04-28T04:45:03.370Z,1013.15
2017-04-28T04:50:03.101Z,1013.16
2017-04-28T04:55:02.752Z,1013.13
2017-04-28T05:00:03.505Z,1013.17
2017-04-28T05:05:03.225Z,1013.16
2017-04-28T05:10:03.000Z,1013.2
2017-04-28T05:15:02.724Z,1013.05
2017-04-28T05:20:03.311Z,1013.1
2017-04-28T05:25:02.870Z,1013.14
2017-04-28T05:30:03.597Z,1013.11
2017-04-28T05:35:03.366Z,1013.01
2017-04-28T05:40:03.001Z,1013.03
2017-04-28T05:45:03.625Z,1012.96
2017-04-28T05:50:03.388Z,1013.1
2017-04-28T05:55:03.062Z,1013.15
2017-04-28T06:00:02.829Z,1013.14
2017-04-28T06:05:03.401Z,1013.11
2017-04-28T06:10:03.230Z,1013.12
2017-04-28T06:15:02.937Z,1013.16
2017-04-28T06:20:02.713Z,1013.08
2017-04-28T06:25:03.463Z,1013.05
2017-04-28T06:30:03.265Z,1013.13
2017-04-28T06:35:02.985Z,1013.09
2017-04-28T06:40:03.653Z,1013.11
2017-04-28T06:45:03.320Z,1013.13
2017-04-28T06:50:03.032Z,1013.2
2017-04-28T06:55:02.710Z,1013.15
2017-04-28T07:00:03.334Z,1013.12
2017-04-28T07:05:02.974Z,1013.26
2017-04-28T07:10:03.647Z,1013.28
2017-04-28T07:15:03.354Z,1013.28
2017-04-28T07:20:03.010Z,1013.3
2017-04-28T07:25:03.663Z,1013.3
2017-04-28T07:30:03.421Z,1013.27
2017-04-28T07:35:03.248Z,1013.23
2017-04-28T07:40:02.992Z,1013.26
2017-04-28T07:45:02.645Z,1013.32
2017-04-28T07:50:03.381Z,1013.33
2017-04-28T07:55:02.980Z,1013.36
2017-04-28T08:00:02.812Z,1013.27
2017-04-28T08:05:03.474Z,1013.41
2017-04-28T08:10:03.305Z,1013.43
2017-04-28T08:15:02.983Z,1013.46
2017-04-28T08:20:03.663Z,1013.4
2017-04-28T08:25:03.323Z,1013.41
2017-04-28T08:30:03.139Z,1013.4
2017-04-28T08:35:02.839Z,1013.48
2017-04-28T08:40:03.586Z,1013.44
2017-04-28T08:45:03.320Z,1013.47
2017-04-28T08:50:03.143Z,1013.43
2017-04-28T08:55:02.908Z,1013.42
2017-04-28T09:00:02.736Z,1013.49
2017-04-28T09:05:03.455Z,1013.51
2017-04-28T09:10:03.425Z,1013.55
2017-04-28T09:15:03.264Z,1013.56
2017-04-28T09:20:02.852Z,1013.53
2017-04-28T09:25:03.633Z,1013.57
2017-04-28T09:30:03.304Z,1013.53
2017-04-28T09:35:03.137Z,1013.53
2017-04-28T09:40:02.958Z,1013.5
2017-04-28T09:45:02.787Z,1013.49
2017-04-28T09:50:03.569Z,1013.44
2017-04-28T09:55:03.213Z,1013.38
2017-04-28T10:00:03.045Z,1013.32
2017-04-28T10:05:02.821Z,1013.33
2017-04-28T10:10:03.504Z,1013.36
2017-04-28T10:15:03.175Z,1013.34
2017-04-28T10:20:03.063Z,1013.31
2017-04-28T10:25:03.707Z,1013.34
2017-04-28T10:30:03.454Z,1013.36
2017-04-28T10:35:03.175Z,1013.41
2017-04-28T10:40:02.987Z,1013.31
2017-04-28T10:45:03.687Z,1013.3
2017-04-28T10:50:03.309Z,1013.27
2017-04-28T10:55:02.926Z,1013.25
2017-04-28T11:00:02.729Z,1013.33
2017-04-28T11:05:03.397Z,1013.32
2017-04-28T11:10:03.230Z,1013.24
2017-04-28T11:15:02.949Z,1013.29
2017-04-28T11:20:02.940Z,1013.36
2017-04-28T11:25:02.714Z,1013.23
2017-04-28T11:30:03.354Z,1013.29
2017-04-28T11:35:03.084Z,1013.3
2017-04-28T11:40:02.946Z,1013.38
2017-04-28T11:45:02.886Z,1013.23
2017-04-28T11:50:02.776Z,1013.34
2017-04-28T11:55:02.905Z,1013.29
2017-04-28T12:00:02.800Z,1013.4
2017-04-28T12:05:03.446Z,1013.36
2017-04-28T12:10:03.529Z,1013.39
2017-04-28T12:15:03.683Z,1013.27
2017-04-28T12:20:02.801Z,1013.2
2017-04-28T12:25:03.138Z,1013.19
2017-04-28T12:30:03.063Z,1013.24
2017-04-28T12:35:02.733Z,1013.23
2017-04-28T12:40:03.367Z,1013.16
2017-04-28T12:45:03.252Z,1013.32
2017-04-28T12:50:03.310Z,1013.33
2017-04-28T12:55:03.204Z,1013.25
2017-04-28T13:00:03.299Z,1013.22
2017-04-28T13:05:03.115Z,1013.21
2017-04-28T13:10:03.397Z,1013.15
2017-04-28T13:15:03.360Z,1013.25
2017-04-28T13:20:03.062Z,1013.3
2017-04-28T13:25:03.467Z,1013.4
2017-04-28T13:30:03.593Z,1013.39
2017-04-28T13:35:03.325Z,1013.39
2017-04-28T13:40:03.521Z,1013.4
2017-04-28T13:45:02.928Z,1013.36
2017-04-28T13:50:03.382Z,1013.41
2017-04-28T13:55:03.556Z,1013.29
2017-04-28T14:00:02.879Z,1013.31
2017-04-28T14:05:03.515Z,1013.25
2017-04-28T14:10:02.977Z,1013.25
2017-04-28T14:15:02.801Z,1013.17
2017-04-28T14:20:03.020Z,1013.15
2017-04-28T14:25:02.909Z,1013.17
2017-04-28T14:30:03.445Z,1013.18
2017-04-28T14:35:02.973Z,1013.16
2017-04-28T14:40:03.359Z,1013.17
2017-04-28T14:45:02.751Z,1013.16
2017-04-28T14:50:03.143Z,1013.15
2017-04-28T14:55:03.546Z,1013.2
2017-04-28T15:00:03.224Z,1013.26
2017-04-28T15:05:03.493Z,1013.32
2017-04-28T15:10:02.939Z,1013.38
2017-04-28T15:15:03.197Z,1013.41
2017-04-28T15:20:03.246Z,1013.38
2017-04-28T15:25:03.334Z,1013.43
2017-04-28T15:30:03.338Z,1013.49
2017-04-28T15:35:03.161Z,1013.54
2017-04-28T15:40:03.170Z,1013.59
2017-04-28T15:45:03.138Z,1013.62
2017-04-28T15:50:03.089Z,1013.63
2017-04-28T15:55:02.966Z,1013.67
2017-04-28T16:00:03.623Z,1013.82
2017-04-28T16:05:03.464Z,1013.74
2017-04-28T16:10:03.348Z,1013.74
2017-04-28T16:15:03.051Z,1013.75
2017-04-28T16:20:02.765Z,1013.76
2017-04-28T16:25:03.508Z,1013.86
2017-04-28T16:30:03.202Z,1013.84
2017-04-28T16:35:02.916Z,1013.91
2017-04-28T16:40:02.795Z,1013.94
2017-04-28T16:45:03.629Z,1013.99
2017-04-28T16:50:03.480Z,1013.98
2017-04-28T16:55:03.206Z,1014.07
2017-04-28T17:00:02.878Z,1014.13
2017-04-28T17:05:02.690Z,1014.15
2017-04-28T17:10:03.434Z,1014.1
2017-04-28T17:15:03.258Z,1014.11
2017-04-28T17:20:02.999Z,1014.07
2017-04-28T17:25:03.629Z,1014.19
2017-04-28T17:30:03.317Z,1014.27
2017-04-28T17:35:03.147Z,1014.27
2017-04-28T17:40:03.089Z,1014.34
2017-04-28T17:45:02.918Z,1014.34
2017-04-28T17:50:02.687Z,1014.37
2017-04-28T17:55:03.385Z,1014.44
2017-04-28T18:00:03.310Z,1014.5
2017-04-28T18:05:03.050Z,1014.6
2017-04-28T18:10:02.825Z,1014.7
2017-04-28T18:15:03.583Z,1014.72
2017-04-28T18:20:03.217Z,1014.74
2017-04-28T18:25:03.126Z,1014.75
2017-04-28T18:30:02.968Z,1014.72
2017-04-28T18:35:02.737Z,1014.77
2017-04-28T18:40:03.630Z,1014.8
2017-04-28T18:45:03.312Z,1014.82
2017-04-28T18:50:03.136Z,1014.87
2017-04-28T18:55:02.739Z,1014.93
2017-04-28T19:00:03.479Z,1014.97
2017-04-28T19:05:03.352Z,1015.03
2017-04-28T19:10:03.249Z,1015.04
2017-04-28T19:15:03.073Z,1015.07
2017-04-28T19:20:02.856Z,1015.21
2017-04-28T19:25:03.247Z,1015.28
2017-04-28T19:30:03.110Z,1015.33
2017-04-28T19:35:02.770Z,1015.36
2017-04-28T19:40:03.832Z,1015.41
2017-04-28T19:45:03.690Z,1015.46
2017-04-28T19:50:03.446Z,1015.48
2017-04-28T19:55:03.259Z,1015.49
2017-04-28T20:00:02.961Z,1015.55
2017-04-28T20:05:02.756Z,1015.58
2017-04-28T20:10:03.402Z,1015.67
2017-04-28T20:15:03.247Z,1015.77
2017-04-28T20:20:02.949Z,1015.82
2017-04-28T20:25:03.534Z,1015.84
2017-04-28T20:30:03.129Z,1015.85
2017-04-28T20:35:02.945Z,1015.88
2017-04-28T20:40:02.834Z,1015.8
2017-04-28T20:45:03.538Z,1015.8
2017-04-28T20:50:03.335Z,1015.85
2017-04-28T20:55:03.012Z,1015.84
2017-04-28T21:00:03.180Z,1015.87
2017-04-28T21:05:02.834Z,1015.92
2017-04-28T21:10:03.687Z,1015.98
2017-04-28T21:15:03.584Z,1015.94
2017-04-28T21:20:03.474Z,1016.01
2017-04-28T21:25:03.086Z,1016
2017-04-28T21:30:02.882Z,1016.05
2017-04-28T21:35:03.650Z,1016.17
2017-04-28T21:40:03.333Z,1016.18
2017-04-28T21:45:03.085Z,1016.25
2017-04-28T21:50:02.846Z,1016.32
2017-04-28T21:55:03.522Z,1016.34
2017-04-28T22:00:03.340Z,1016.47
2017-04-28T22:05:03.229Z,1016.48
2017-04-28T22:10:02.943Z,1016.44
2017-04-28T22:15:03.553Z,1016.48
2017-04-28T22:20:03.220Z,1016.61
2017-04-28T22:25:02.864Z,1016.68
2017-04-28T22:30:03.478Z,1016.64
2017-04-28T22:35:03.036Z,1016.62
2017-04-28T22:40:02.677Z,1016.6
2017-04-28T22:45:04.297Z,1016.58
2017-04-28T22:50:03.093Z,1016.63
2017-04-28T22:55:02.754Z,1016.64
2017-04-28T23:00:03.559Z,1016.58
2017-04-28T23:05:02.939Z,1016.58
2017-04-28T23:10:03.627Z,1016.67
2017-04-28T23:15:03.221Z,1016.6
2017-04-28T23:20:02.968Z,1016.63
2017-04-28T23:25:02.764Z,1016.64
2017-04-28T23:30:03.524Z,1016.59
2017-04-28T23:35:03.123Z,1016.65
2017-04-28T23:40:02.962Z,1016.74
2017-04-28T23:45:03.692Z,1016.87
2017-04-28T23:50:03.348Z,1016.82
2017-04-28T23:55:03.193Z,1016.81
